Time;durP1;ratioP1;P1;durP2;ratioP2;P2;SDS_P1;SDS_P2;PMS_P1;PMS_P2;Temp;Humidity;BMP_temperature;BMP_pressure;BME280_temperature;BME280_humidity;BME280_pressure;Samples;Min_cycle;Max_cycle;Signal;HPM_P1;HPM_P2
2022/04/05 00:02:31;;;;;;;17.50;8.10;;;14.20;96.80;;;;;;5017941;28;20206;-94
2022/04/05 00:05:58;;;;;;;14.30;6.97;;;14.20;97.10;;;;;;5051347;23;20238;-94
2022/04/05 00:08:37;;;;;;;18.40;8.40;;;14.20;97.10;;;;;;5031965;28;20201;-95
2022/04/05 00:11:42;;;;;;;13.30;7.50;;;14.20;97.00;;;;;;5024035;28;20243;-93
2022/04/05 00:14:11;;;;;;;14.50;6.90;;;14.20;97.00;;;;;;5006675;28;20206;-93
2022/04/05 00:20:08;;;;;;;15.50;7.13;;;14.20;96.90;;;;;;5009821;28;20213;-93
2022/04/05 00:22:38;;;;;;;15.70;6.43;;;14.20;96.80;;;;;;5004732;28;20204;-95
2022/04/05 00:26:10;;;;;;;16.70;7.37;;;14.20;96.80;;;;;;5001905;28;20233;-94
2022/04/05 00:29:05;;;;;;;15.43;7.43;;;14.20;96.80;;;;;;5006903;28;20190;-95
2022/04/05 00:32:10;;;;;;;15.40;7.37;;;14.20;96.90;;;;;;5024354;28;20324;-96
2022/04/05 00:34:45;;;;;;;20.03;7.23;;;14.20;96.80;;;;;;5023681;28;20220;-95
2022/04/05 00:43:34;;;;;;;14.63;7.33;;;14.20;96.80;;;;;;4954679;29;20327;-95
2022/04/05 00:46:03;;;;;;;10.83;6.20;;;14.30;96.80;;;;;;5017770;28;20240;-95
2022/04/05 00:49:01;;;;;;;15.73;7.53;;;14.20;96.50;;;;;;5024437;28;20206;-95
2022/04/05 00:51:42;;;;;;;16.53;6.40;;;14.20;96.70;;;;;;5031967;28;20251;-94
2022/04/05 00:54:27;;;;;;;12.87;6.43;;;14.30;96.50;;;;;;5040136;28;20254;-95
2022/04/05 00:57:19;;;;;;;16.77;6.80;;;14.30;96.50;;;;;;5026892;28;20300;-94
2022/04/05 01:00:22;;;;;;;16.87;7.33;;;14.30;96.50;;;;;;5026063;28;20205;-95
2022/04/05 01:06:50;;;;;;;15.20;6.53;;;14.40;96.30;;;;;;5028332;28;20716;-96
2022/04/05 01:21:24;;;;;;;8.87;3.97;;;14.40;95.70;;;;;;5011076;28;20209;-96
2022/04/05 01:24:25;;;;;;;14.83;4.47;;;14.40;95.70;;;;;;5012974;28;20221;-94
2022/04/05 01:27:08;;;;;;;7.80;3.90;;;14.40;95.60;;;;;;5008232;28;20217;-94
2022/04/05 01:30:41;;;;;;;10.13;4.13;;;14.40;95.50;;;;;;5008636;28;20248;-96
2022/04/05 01:33:35;;;;;;;8.70;3.60;;;14.40;95.40;;;;;;5008898;28;20212;-93
2022/04/05 01:43:20;;;;;;;9.90;4.53;;;14.50;95.20;;;;;;5012709;28;20216;-94
2022/04/05 01:45:48;;;;;;;12.30;4.70;;;14.50;95.10;;;;;;5009386;28;20194;-95
2022/04/05 01:48:27;;;;;;;10.07;4.73;;;14.50;95.00;;;;;;5021232;28;20206;-96
2022/04/05 01:51:00;;;;;;;12.47;5.20;;;14.50;95.00;;;;;;5026310;28;20220;-96
2022/04/05 01:53:53;;;;;;;12.77;4.43;;;14.50;95.00;;;;;;5028378;28;20224;-95
2022/04/05 01:59:57;;;;;;;10.57;4.07;;;14.40;95.10;;;;;;5027564;28;20560;-93
2022/04/05 02:02:27;;;;;;;13.20;3.77;;;14.50;95.10;;;;;;5030785;28;20189;-94
2022/04/05 02:04:56;;;;;;;9.63;4.13;;;14.50;95.00;;;;;;5031115;28;20204;-92
2022/04/05 02:07:28;;;;;;;11.10;4.57;;;14.50;95.10;;;;;;5027611;28;20265;-95
2022/04/05 02:10:08;;;;;;;7.63;3.43;;;14.50;95.00;;;;;;5025596;28;20204;-93
2022/04/05 02:13:21;;;;;;;7.53;3.23;;;14.50;95.00;;;;;;5024369;28;20279;-92
2022/04/05 02:16:04;;;;;;;9.20;3.67;;;14.50;95.10;;;;;;4996158;28;20207;-93
2022/04/05 02:18:32;;;;;;;10.40;3.83;;;14.50;95.10;;;;;;5024080;28;20236;-92
2022/04/05 02:21:11;;;;;;;9.53;3.77;;;14.50;95.10;;;;;;5024384;28;20205;-93
2022/04/05 02:24:23;;;;;;;12.50;4.43;;;14.50;95.20;;;;;;5023630;28;20211;-92
2022/04/05 02:26:53;;;;;;;8.17;3.97;;;14.40;95.10;;;;;;5022577;28;20216;-94
2022/04/05 02:29:27;;;;;;;6.10;3.10;;;14.40;94.90;;;;;;5019987;28;20279;-95
2022/04/05 02:35:21;;;;;;;9.40;4.33;;;14.40;95.10;;;;;;5025603;22;20262;-95
2022/04/05 02:37:56;;;;;;;11.60;4.70;;;14.40;95.00;;;;;;5020473;28;20281;-94
2022/04/05 02:40:26;;;;;;;11.73;5.20;;;14.40;95.00;;;;;;5018797;28;20201;-95
2022/04/05 02:43:00;;;;;;;8.07;3.97;;;14.40;95.00;;;;;;5020113;28;20642;-94
2022/04/05 02:48:45;;;;;;;10.80;4.10;;;14.50;95.10;;;;;;5010533;28;20216;-94
2022/04/05 02:51:29;;;;;;;8.40;4.27;;;14.40;95.00;;;;;;5018928;28;20252;-94
2022/04/05 02:54:08;;;;;;;11.43;4.83;;;14.40;95.10;;;;;;5019718;28;20214;-95
2022/04/05 02:56:40;;;;;;;11.10;4.27;;;14.40;95.10;;;;;;5017341;28;20285;-94
2022/04/05 02:59:17;;;;;;;7.20;3.60;;;14.40;95.10;;;;;;5018875;28;20206;-95
2022/04/05 03:02:02;;;;;;;10.37;4.67;;;14.40;95.20;;;;;;4999956;28;20252;-94
2022/04/05 03:04:35;;;;;;;12.10;4.80;;;14.40;95.40;;;;;;5017181;28;20212;-95
2022/04/05 03:07:10;;;;;;;11.43;4.37;;;14.40;95.30;;;;;;5015217;28;20202;-95
2022/04/05 03:10:32;;;;;;;6.87;3.53;;;14.40;95.40;;;;;;5026666;28;20193;-94
2022/04/05 03:16:37;;;;;;;9.10;4.10;;;14.40;95.70;;;;;;4953271;28;20253;-95
2022/04/05 03:19:13;;;;;;;8.27;4.27;;;14.40;95.60;;;;;;4946595;29;20294;-94
2022/04/05 03:25:14;;;;;;;6.33;3.50;;;14.40;95.70;;;;;;4994058;28;20214;-94
2022/04/05 03:27:54;;;;;;;8.80;4.07;;;14.30;95.60;;;;;;5019140;28;20216;-94
2022/04/05 03:30:28;;;;;;;6.60;3.67;;;14.30;95.60;;;;;;5027044;28;20658;-94
2022/04/05 03:33:08;;;;;;;7.23;3.60;;;14.40;95.70;;;;;;5028008;28;20229;-94
2022/04/05 03:35:38;;;;;;;5.57;3.33;;;14.30;95.60;;;;;;5027707;28;20226;-95
2022/04/05 03:38:08;;;;;;;8.57;4.13;;;14.30;95.60;;;;;;5026573;28;20199;-94
2022/04/05 03:40:43;;;;;;;6.53;3.53;;;14.30;95.60;;;;;;5004063;28;20194;-92
2022/04/05 03:43:18;;;;;;;7.00;3.33;;;14.30;95.60;;;;;;5015409;28;20205;-94
2022/04/05 03:45:49;;;;;;;5.70;3.47;;;14.30;95.60;;;;;;5005391;28;20201;-94
2022/04/05 03:48:20;;;;;;;7.57;3.73;;;14.30;95.70;;;;;;5007433;28;20216;-94
2022/04/05 03:50:50;;;;;;;8.10;3.70;;;14.30;95.60;;;;;;5021267;28;20256;-95
2022/04/05 03:53:17;;;;;;;6.87;3.50;;;14.30;95.70;;;;;;5018885;28;20208;-93
2022/04/05 03:55:56;;;;;;;10.70;4.37;;;14.30;95.60;;;;;;5018191;28;20209;-93
2022/04/05 03:58:24;;;;;;;12.43;4.50;;;14.30;95.70;;;;;;5019753;28;20208;-94
2022/04/05 04:00:53;;;;;;;12.10;4.00;;;14.30;96.00;;;;;;5022816;28;20206;-93
2022/04/05 04:03:21;;;;;;;9.37;4.23;;;14.30;95.60;;;;;;5020700;28;20216;-94
2022/04/05 04:05:52;;;;;;;11.63;4.73;;;14.30;95.60;;;;;;5023166;28;20205;-96
2022/04/05 04:08:20;;;;;;;6.87;3.23;;;14.30;95.60;;;;;;5024932;28;20658;-95
2022/04/05 04:10:51;;;;;;;6.77;3.67;;;14.30;95.60;;;;;;5026228;28;20193;-95
2022/04/05 04:13:21;;;;;;;7.90;3.67;;;14.30;95.70;;;;;;5023623;28;20205;-95
2022/04/05 04:15:56;;;;;;;7.17;3.40;;;14.30;95.60;;;;;;5026331;28;20209;-94
2022/04/05 04:18:25;;;;;;;8.70;4.33;;;14.30;95.60;;;;;;5023642;28;20204;-94
2022/04/05 04:21:02;;;;;;;8.17;3.70;;;14.20;95.60;;;;;;5023491;28;20253;-96
2022/04/05 04:23:41;;;;;;;11.50;5.40;;;14.30;95.70;;;;;;5023318;28;20212;-94
2022/04/05 04:26:14;;;;;;;7.60;3.70;;;14.20;95.60;;;;;;5021317;28;20193;-94
2022/04/05 04:28:42;;;;;;;8.17;3.60;;;14.20;95.70;;;;;;5018598;28;20339;-94
2022/04/05 04:31:10;;;;;;;14.60;6.10;;;14.20;95.70;;;;;;5018881;28;20201;-95
2022/04/05 04:33:38;;;;;;;8.63;3.67;;;14.20;95.70;;;;;;5018928;28;20221;-94
2022/04/05 04:36:07;;;;;;;6.43;3.87;;;14.20;95.70;;;;;;5018972;28;20213;-94
2022/04/05 04:38:38;;;;;;;7.40;3.60;;;14.20;95.90;;;;;;5017676;28;20206;-94
2022/04/05 04:41:08;;;;;;;7.77;3.83;;;14.20;95.90;;;;;;5017687;28;20215;-94
2022/04/05 04:43:42;;;;;;;7.07;3.67;;;14.20;96.00;;;;;;5018165;28;20209;-94
2022/04/05 04:46:16;;;;;;;7.37;3.83;;;14.20;96.10;;;;;;5016068;28;20200;-93
2022/04/05 04:48:44;;;;;;;7.30;4.10;;;14.20;96.10;;;;;;5018522;28;20236;-93
2022/04/05 04:51:13;;;;;;;9.03;4.03;;;14.20;95.90;;;;;;5017243;28;20319;-94
2022/04/05 04:53:41;;;;;;;8.67;4.30;;;14.20;96.00;;;;;;5017151;28;20214;-94
2022/04/05 04:56:11;;;;;;;7.73;3.90;;;14.20;96.00;;;;;;5017239;28;20190;-93
2022/04/05 04:58:44;;;;;;;7.23;3.33;;;14.20;96.10;;;;;;5010228;28;20218;-95
2022/04/05 05:01:37;;;;;;;7.37;4.10;;;14.20;96.10;;;;;;5021952;28;20260;-94
2022/04/05 05:04:07;;;;;;;8.17;3.30;;;14.20;96.30;;;;;;5007476;28;20225;-93
2022/04/05 05:06:35;;;;;;;5.77;3.17;;;14.20;96.10;;;;;;5023710;28;20203;-95
2022/04/05 05:09:13;;;;;;;11.17;4.53;;;14.20;96.00;;;;;;5018226;28;20201;-96
2022/04/05 05:17:15;;;;;;;8.40;4.37;;;14.20;96.20;;;;;;5000993;28;20202;-94
2022/04/05 05:19:58;;;;;;;8.57;3.70;;;14.20;96.10;;;;;;5005079;28;20201;-94
2022/04/05 05:22:27;;;;;;;10.93;4.67;;;14.20;96.30;;;;;;5005623;28;20209;-93
2022/04/05 05:24:59;;;;;;;7.00;3.67;;;14.20;96.10;;;;;;5003968;28;20203;-94
2022/04/05 05:30:30;;;;;;;5.90;3.53;;;14.20;96.20;;;;;;5003007;28;20232;-92
2022/04/05 05:36:28;;;;;;;6.60;3.70;;;14.10;96.30;;;;;;5001874;28;20305;-94
2022/04/05 05:39:01;;;;;;;9.37;4.10;;;14.20;96.20;;;;;;5009024;28;20237;-92
2022/04/05 05:41:47;;;;;;;6.67;3.67;;;14.20;96.30;;;;;;5008421;28;20205;-95
2022/04/05 05:47:37;;;;;;;9.57;4.33;;;14.10;96.50;;;;;;5122723;22;20768;-94
2022/04/05 05:53:44;;;;;;;4.30;3.67;;;14.10;96.60;;;;;;4979338;28;20260;-94
2022/04/05 05:56:12;;;;;;;10.60;5.40;;;14.10;96.60;;;;;;4979311;28;20266;-93
2022/04/05 05:58:50;;;;;;;6.13;3.87;;;14.10;96.40;;;;;;4977857;28;20250;-93
2022/04/05 06:04:47;;;;;;;13.03;5.93;;;14.10;96.70;;;;;;5040025;23;20240;-95
2022/04/05 06:07:16;;;;;;;11.73;5.40;;;14.10;96.50;;;;;;5031102;28;20205;-95
2022/04/05 06:30:14;;;;;;;13.13;5.47;;;14.10;97.00;;;;;;5005282;28;20214;-96
2022/04/05 06:33:18;;;;;;;11.23;4.80;;;14.10;97.00;;;;;;5031776;28;20224;-94
2022/04/05 07:11:48;;;;;;;15.57;9.87;;;14.20;97.10;;;;;;5441271;22;20245;-96
2022/04/05 07:21:28;;;;;;;9.20;4.93;;;14.30;97.60;;;;;;4954084;28;20688;-96
2022/04/05 08:24:28;;;;;;;25.77;9.80;;;14.60;97.50;;;;;;5212978;22;20244;-96
2022/04/05 08:30:40;;;;;;;55.23;11.40;;;14.50;97.70;;;;;;5034311;28;20242;-95
2022/04/05 08:33:15;;;;;;;11.53;7.33;;;14.60;97.80;;;;;;5042939;28;20233;-96
2022/04/05 08:36:26;;;;;;;19.07;8.13;;;14.60;97.80;;;;;;5036327;28;20204;-96
2022/04/05 08:54:42;;;;;;;31.63;14.03;;;14.80;98.30;;;;;;5095162;22;21617;-96
2022/04/05 08:57:17;;;;;;;8.07;5.57;;;14.80;98.00;;;;;;5019199;28;20213;-95
2022/04/05 09:00:10;;;;;;;23.87;7.73;;;14.80;97.40;;;;;;5019896;28;20212;-95
2022/04/05 09:03:05;;;;;;;13.47;5.63;;;14.80;97.60;;;;;;5014595;28;20210;-95
2022/04/05 09:05:59;;;;;;;14.03;6.73;;;14.90;97.50;;;;;;5017663;28;20205;-95
2022/04/05 09:08:57;;;;;;;10.83;5.17;;;14.80;97.40;;;;;;5034126;28;20212;-96
2022/04/05 09:11:54;;;;;;;9.37;4.33;;;14.90;97.60;;;;;;5024497;28;20236;-96
2022/04/05 09:14:30;;;;;;;8.27;3.23;;;14.90;97.70;;;;;;5020831;28;20213;-95
2022/04/05 09:17:19;;;;;;;10.37;4.67;;;14.90;97.40;;;;;;5008806;28;20208;-94
2022/04/05 09:20:27;;;;;;;8.70;3.93;;;14.90;97.40;;;;;;5001111;28;20226;-95
2022/04/05 09:23:04;;;;;;;12.93;5.23;;;14.90;97.30;;;;;;5005312;28;20264;-95
2022/04/05 09:25:38;;;;;;;6.67;3.57;;;14.90;97.00;;;;;;5036001;28;20222;-95
2022/04/05 09:28:30;;;;;;;9.47;3.90;;;15.00;96.90;;;;;;5038653;28;20219;-95
2022/04/05 09:34:24;;;;;;;6.10;3.30;;;15.00;96.60;;;;;;5019241;28;20718;-96
2022/04/05 09:40:32;;;;;;;3.97;2.77;;;14.90;96.50;;;;;;5016932;28;20209;-93
2022/04/05 09:43:49;;;;;;;16.43;5.03;;;15.00;96.60;;;;;;5018808;28;20204;-95
2022/04/05 09:46:24;;;;;;;6.60;3.10;;;15.00;96.80;;;;;;4996174;28;20216;-94
2022/04/05 09:49:39;;;;;;;13.23;4.10;;;14.90;96.90;;;;;;4995762;28;20710;-93
2022/04/05 09:52:25;;;;;;;5.10;3.37;;;14.90;97.00;;;;;;4976631;28;20204;-93
2022/04/05 09:55:18;;;;;;;8.23;3.80;;;15.00;97.10;;;;;;4978240;28;20270;-95
2022/04/05 09:57:46;;;;;;;8.67;4.07;;;15.00;97.30;;;;;;4979324;28;20211;-95
2022/04/05 10:01:02;;;;;;;8.37;3.90;;;15.00;97.10;;;;;;4989874;28;20202;-95
2022/04/05 10:03:39;;;;;;;10.07;3.67;;;15.00;97.10;;;;;;4996021;28;20289;-95
2022/04/05 10:09:23;;;;;;;9.63;4.50;;;15.00;97.00;;;;;;4991946;28;20203;-96
2022/04/05 10:12:00;;;;;;;4.73;2.50;;;15.00;97.00;;;;;;4983894;28;20213;-94
2022/04/05 10:14:55;;;;;;;6.80;3.27;;;15.10;97.00;;;;;;4983557;28;20245;-96
2022/04/05 10:17:53;;;;;;;8.90;3.83;;;15.10;97.10;;;;;;4990536;28;20199;-96
2022/04/05 10:24:08;;;;;;;9.20;3.47;;;15.10;97.10;;;;;;4988467;28;20246;-96
2022/04/05 10:27:08;;;;;;;8.50;3.17;;;15.10;97.20;;;;;;5014881;28;20241;-96
2022/04/05 10:29:37;;;;;;;5.57;3.17;;;15.10;97.20;;;;;;5021083;28;20304;-94
2022/04/05 10:32:22;;;;;;;5.37;2.27;;;15.20;97.00;;;;;;5026020;28;20185;-95
2022/04/05 10:39:18;;;;;;;5.47;2.90;;;15.20;97.00;;;;;;5025323;28;20178;-94
2022/04/05 10:42:25;;;;;;;6.53;2.93;;;15.20;96.70;;;;;;5022453;28;20234;-94
2022/04/05 10:47:59;;;;;;;8.73;3.93;;;15.20;96.60;;;;;;5126424;23;20267;-95
2022/04/05 10:53:31;;;;;;;5.73;3.00;;;15.20;96.70;;;;;;5002409;28;20233;-92
2022/04/05 10:56:30;;;;;;;7.03;3.13;;;15.20;96.70;;;;;;4999519;28;20208;-94
2022/04/05 10:59:23;;;;;;;7.80;3.83;;;15.20;97.00;;;;;;4986579;28;20225;-94
2022/04/05 11:01:56;;;;;;;6.07;3.30;;;15.30;97.10;;;;;;5004614;28;20200;-94
2022/04/05 11:04:37;;;;;;;8.63;3.77;;;15.20;96.70;;;;;;5001374;28;20214;-94
2022/04/05 11:07:50;;;;;;;19.33;5.73;;;15.30;97.10;;;;;;5003984;28;20218;-95
2022/04/05 11:10:20;;;;;;;40.87;7.63;;;15.30;97.90;;;;;;4994070;28;20202;-93
2022/04/05 11:13:07;;;;;;;12.13;4.40;;;15.40;99.10;;;;;;5009491;28;20226;-92
2022/04/05 11:15:48;;;;;;;7.33;3.77;;;15.50;99.90;;;;;;5007017;28;20234;-94
2022/04/05 11:18:24;;;;;;;4.43;3.00;;;15.60;99.40;;;;;;5005616;28;20212;-94
2022/04/05 11:20:54;;;;;;;5.63;3.30;;;15.70;99.70;;;;;;5008028;28;20218;-93
2022/04/05 11:23:53;;;;;;;6.83;3.63;;;15.90;99.50;;;;;;5005222;28;20238;-94
2022/04/05 11:26:38;;;;;;;8.50;3.57;;;16.00;98.00;;;;;;4997038;28;20204;-94
2022/04/05 11:29:29;;;;;;;7.03;3.77;;;16.20;98.20;;;;;;4984658;28;20251;-93
2022/04/05 11:32:09;;;;;;;16.17;4.10;;;16.40;98.20;;;;;;4985311;28;20289;-96
2022/04/05 11:34:46;;;;;;;6.93;3.90;;;16.50;97.10;;;;;;4989546;28;20344;-94
2022/04/05 11:37:34;;;;;;;6.57;3.47;;;16.70;96.20;;;;;;4980263;28;20661;-95
2022/04/05 11:40:04;;;;;;;8.90;4.10;;;16.70;94.50;;;;;;4976883;28;20256;-93
2022/04/05 11:42:40;;;;;;;9.30;3.90;;;16.90;94.90;;;;;;4995964;28;20206;-94
2022/04/05 11:45:11;;;;;;;9.13;4.80;;;17.00;94.20;;;;;;4996717;28;20666;-94
2022/04/05 11:47:39;;;;;;;5.80;3.53;;;17.10;93.70;;;;;;4998397;28;20213;-95
2022/04/05 11:50:08;;;;;;;241.30;35.13;;;17.10;93.70;;;;;;4997947;28;20206;-96
2022/04/05 12:01:42;;;;;;;8.53;4.57;;;17.50;90.20;;;;;;5040421;22;20224;-93
2022/04/05 12:05:11;;;;;;;9.83;4.20;;;17.50;88.80;;;;;;5035195;28;20208;-93
2022/04/05 12:07:43;;;;;;;30.93;7.10;;;17.50;89.70;;;;;;4988253;28;20245;-94
2022/04/05 12:10:12;;;;;;;11.53;5.33;;;17.60;90.60;;;;;;4993732;28;20252;-93
2022/04/05 12:19:45;;;;;;;9.77;6.47;;;17.70;90.20;;;;;;4996900;28;20237;-96
2022/04/05 12:23:22;;;;;;;;;;;;;;;;;;;;;
2022/04/05 12:29:21;;;;;;;10.57;7.37;;;17.80;88.70;;;;;;4955472;28;20326;-95
2022/04/05 12:31:56;;;;;;;7.77;6.97;;;17.90;88.00;;;;;;4975977;28;20212;-95
2022/04/05 12:34:37;;;;;;;12.03;8.57;;;17.90;86.60;;;;;;4977113;28;20240;-95
2022/04/05 12:45:04;;;;;;;;;;;;;;;;;;;;;
2022/04/05 12:55:15;;;;;;;15.53;10.77;;;17.90;83.60;;;;;;4900606;28;20228;-96
2022/04/05 12:57:55;;;;;;;15.53;11.93;;;17.90;83.70;;;;;;4972058;28;20206;-95
2022/04/05 13:17:47;;;;;;;12.93;10.93;;;17.90;84.50;;;;;;4986113;22;20230;-96
2022/04/05 13:52:18;;;;;;;8.30;5.30;;;17.50;79.00;;;;;;5008759;28;20261;-96
2022/04/05 13:55:28;;;;;;;5.63;4.43;;;17.50;79.30;;;;;;5006946;28;20325;-96
2022/04/05 14:10:00;;;;;;;23.37;8.50;;;17.30;80.20;;;;;;5178979;23;20239;-96
2022/04/05 14:13:19;;;;;;;;;;;;;;;;;;;;;
2022/04/05 14:19:44;;;;;;;6.20;4.00;;;17.30;81.00;;;;;;5037687;28;20199;-96
2022/04/05 14:25:20;;;;;;;11.20;5.47;;;17.30;82.10;;;;;;5032539;28;20201;-96
2022/04/05 14:28:37;;;;;;;8.73;4.83;;;17.30;82.70;;;;;;5038776;28;20231;-96
2022/04/05 14:34:18;;;;;;;15.07;5.00;;;17.40;81.20;;;;;;5014909;28;20227;-96
2022/04/05 14:36:52;;;;;;;18.40;8.77;;;17.40;82.40;;;;;;5015383;28;20201;-96
2022/04/05 14:42:29;;;;;;;16.57;7.90;;;17.50;81.40;;;;;;5028983;23;20231;-96
2022/04/05 14:48:08;;;;;;;14.80;7.73;;;17.50;81.60;;;;;;4951132;28;20220;-96
2022/04/05 14:51:23;;;;;;;;;;;;;;;;;;;;;
2022/04/05 14:54:02;;;;;;;12.97;7.43;;;17.50;79.80;;;;;;5001480;28;20225;-96
2022/04/05 14:57:13;;;;;;;10.93;6.73;;;17.40;79.70;;;;;;5008562;28;20206;-96
2022/04/05 14:59:46;;;;;;;10.17;6.43;;;17.40;79.90;;;;;;5021014;28;20200;-96
2022/04/05 15:02:19;;;;;;;11.10;7.00;;;17.30;80.70;;;;;;5024491;28;20293;-96
2022/04/05 15:05:19;;;;;;;11.90;6.53;;;17.30;80.90;;;;;;5024466;28;20214;-96
2022/04/05 15:16:51;;;;;;;;;;;;;;;;;;;;;
2022/04/05 15:19:57;;;;;;;12.87;7.00;;;17.20;80.90;;;;;;5041922;28;20221;-96
2022/04/05 15:33:40;;;;;;;12.50;6.67;;;17.10;80.60;;;;;;5000757;28;20229;-95
2022/04/05 15:42:15;;;;;;;12.53;6.50;;;16.90;79.20;;;;;;5036280;28;20626;-95
2022/04/05 15:45:01;;;;;;;13.07;6.47;;;16.90;78.80;;;;;;5043009;28;20294;-95
2022/04/05 15:58:18;;;;;;;20.83;8.50;;;16.90;77.40;;;;;;4887036;29;20208;-96
2022/04/05 16:01:38;;;;;;;13.60;6.30;;;16.90;78.90;;;;;;4982484;28;20207;-96
2022/04/05 16:04:36;;;;;;;14.90;6.17;;;16.90;79.40;;;;;;4998160;28;20228;-96
2022/04/05 16:10:59;;;;;;;13.40;6.97;;;16.80;79.10;;;;;;4984523;28;20284;-96
2022/04/05 16:17:06;;;;;;;45.67;16.00;;;16.80;77.60;;;;;;5407194;22;20222;-95
2022/04/05 16:22:56;;;;;;;12.73;7.27;;;16.70;76.70;;;;;;5000989;28;20206;-96
2022/04/05 16:25:27;;;;;;;13.90;6.87;;;16.70;77.60;;;;;;5022077;28;20231;-96
2022/04/05 16:28:37;;;;;;;9.77;5.80;;;16.70;77.80;;;;;;5025939;28;20697;-96
2022/04/05 16:31:20;;;;;;;10.67;6.40;;;16.60;77.60;;;;;;5024195;28;20252;-96
2022/04/05 16:37:38;;;;;;;17.03;7.60;;;16.50;78.30;;;;;;5023420;28;20239;-95
2022/04/05 16:44:15;;;;;;;15.57;7.60;;;16.50;78.30;;;;;;5025335;28;20651;-96
2022/04/05 16:47:00;;;;;;;18.43;7.87;;;16.50;78.40;;;;;;5026671;28;20207;-96
2022/04/05 16:49:32;;;;;;;15.50;7.50;;;16.40;78.30;;;;;;5036309;28;20226;-96
2022/04/05 16:52:08;;;;;;;19.93;8.17;;;16.40;77.70;;;;;;5044820;28;20209;-96
2022/04/05 16:55:03;;;;;;;12.77;6.40;;;16.40;78.10;;;;;;5007251;28;20589;-96
2022/04/05 17:01:07;;;;;;;17.37;7.40;;;16.30;78.10;;;;;;5048327;23;20599;-96
2022/04/05 17:07:34;;;;;;;24.30;9.57;;;16.20;78.20;;;;;;4982323;28;20216;-96
2022/04/05 17:10:03;;;;;;;19.60;7.20;;;16.20;78.40;;;;;;4960610;28;20220;-96
2022/04/05 17:15:55;;;;;;;13.53;6.57;;;16.10;78.70;;;;;;4958034;28;20239;-96
2022/04/05 17:18:32;;;;;;;12.93;6.00;;;16.10;79.10;;;;;;4997953;28;20203;-96
2022/04/05 17:24:26;;;;;;;19.87;7.67;;;16.10;79.20;;;;;;5026007;28;20569;-96
2022/04/05 17:29:52;;;;;;;15.53;6.77;;;16.00;79.30;;;;;;5028318;22;20249;-96
2022/04/05 17:35:39;;;;;;;15.53;6.10;;;16.00;79.50;;;;;;5003248;28;20296;-96
2022/04/05 17:38:14;;;;;;;17.17;6.50;;;16.10;79.50;;;;;;5000401;28;20281;-96
2022/04/05 17:40:59;;;;;;;19.47;7.50;;;16.10;79.70;;;;;;4999816;28;20211;-96
2022/04/05 17:43:26;;;;;;;21.23;6.90;;;16.00;79.20;;;;;;4996746;28;20224;-95
2022/04/05 17:46:02;;;;;;;19.23;7.07;;;16.00;79.20;;;;;;5000635;28;20211;-94
2022/04/05 17:48:44;;;;;;;17.43;5.80;;;16.00;78.70;;;;;;5014975;28;20207;-95
2022/04/05 17:51:29;;;;;;;17.10;6.67;;;16.00;78.60;;;;;;5014987;28;20247;-96
2022/04/05 17:56:59;;;;;;;16.67;6.53;;;16.00;78.70;;;;;;5030407;28;20238;-96
2022/04/05 17:59:53;;;;;;;15.00;6.20;;;16.00;78.40;;;;;;5028847;28;20205;-96
2022/04/05 18:02:30;;;;;;;13.37;6.40;;;16.00;78.40;;;;;;5024287;28;20205;-95
2022/04/05 18:08:08;;;;;;;16.77;6.20;;;15.90;78.30;;;;;;4989966;28;20229;-96
2022/04/05 18:10:38;;;;;;;13.73;5.70;;;16.00;78.40;;;;;;4993747;28;20247;-96
2022/04/05 18:13:16;;;;;;;16.53;5.20;;;15.90;78.40;;;;;;5029035;28;20206;-96
2022/04/05 18:15:55;;;;;;;15.67;5.63;;;16.00;78.00;;;;;;5023299;28;20247;-96
2022/04/05 18:22:20;;;;;;;18.33;6.13;;;15.90;76.90;;;;;;5024064;28;20714;-96
2022/04/05 18:24:50;;;;;;;14.10;5.47;;;15.90;77.40;;;;;;5025181;28;20300;-95
2022/04/05 18:27:27;;;;;;;17.30;6.83;;;15.80;77.40;;;;;;5025152;28;20203;-96
2022/04/05 18:30:25;;;;;;;15.70;5.83;;;15.80;77.80;;;;;;5021782;28;20244;-96
2022/04/05 18:33:02;;;;;;;15.40;5.70;;;15.80;77.50;;;;;;5005326;28;20202;-96
2022/04/05 18:36:02;;;;;;;15.33;5.43;;;15.80;77.30;;;;;;5004765;28;20228;-95
2022/04/05 18:38:40;;;;;;;13.70;4.57;;;15.80;77.20;;;;;;5005209;28;20209;-96
2022/04/05 18:41:37;;;;;;;14.20;5.30;;;15.70;76.70;;;;;;5017832;28;20198;-96
2022/04/05 18:44:09;;;;;;;60.70;18.87;;;15.70;76.50;;;;;;5052946;23;20269;-96
2022/04/05 18:50:17;;;;;;;14.33;4.77;;;15.60;75.70;;;;;;5044761;28;20194;-96
2022/04/05 18:55:50;;;;;;;10.97;4.40;;;15.50;75.80;;;;;;5025413;28;20304;-96
2022/04/05 19:01:48;;;;;;;13.27;4.40;;;15.40;75.90;;;;;;5042529;28;20212;-96
2022/04/05 19:04:44;;;;;;;14.80;4.63;;;15.40;75.80;;;;;;5048861;28;20721;-96
2022/04/05 19:10:34;;;;;;;12.50;4.03;;;15.30;76.20;;;;;;5046305;28;20216;-96
2022/04/05 19:13:44;;;;;;;12.53;4.43;;;15.30;76.30;;;;;;5045658;28;20231;-96
2022/04/05 19:19:00;;;;;;;14.13;4.53;;;15.20;76.20;;;;;;5002338;28;20211;-96
2022/04/05 19:21:29;;;;;;;11.97;3.93;;;15.20;76.30;;;;;;5034255;28;20866;-96
2022/04/05 19:24:31;;;;;;;12.00;4.67;;;15.10;76.40;;;;;;5040311;23;20237;-96
2022/04/05 19:30:38;;;;;;;13.63;4.30;;;15.00;76.80;;;;;;4997960;28;20212;-95
2022/04/05 19:36:10;;;;;;;15.13;4.93;;;14.90;77.00;;;;;;4985791;28;20237;-96
2022/04/05 19:38:57;;;;;;;16.33;4.67;;;14.90;77.00;;;;;;4986225;28;20671;-96
2022/04/05 19:42:10;;;;;;;19.93;5.43;;;14.80;76.90;;;;;;4992065;28;20199;-96
2022/04/05 19:44:40;;;;;;;20.50;3.87;;;14.80;77.10;;;;;;4980139;28;20238;-96
2022/04/05 19:50:33;;;;;;;14.17;4.20;;;14.80;77.00;;;;;;4972177;29;20210;-96
2022/04/05 19:53:05;;;;;;;16.53;4.83;;;14.70;77.00;;;;;;4994769;28;20656;-96
2022/04/05 19:56:29;;;;;;;15.93;4.57;;;14.70;77.60;;;;;;4995157;28;20234;-95
2022/04/05 19:59:14;;;;;;;13.67;3.47;;;14.70;77.50;;;;;;4970716;28;20195;-95
2022/04/05 20:02:11;;;;;;;12.33;4.00;;;14.60;77.80;;;;;;4989769;28;20716;-95
2022/04/05 20:04:49;;;;;;;20.07;5.07;;;14.60;77.80;;;;;;4992861;28;20238;-96
2022/04/05 20:10:46;;;;;;;19.90;5.43;;;14.60;78.10;;;;;;4995681;28;20203;-96
2022/04/05 20:20:21;;;;;;;18.97;4.33;;;14.40;78.90;;;;;;4955386;29;20188;-96
2022/04/05 20:22:57;;;;;;;26.87;5.47;;;14.40;79.20;;;;;;4953910;29;20220;-96
2022/04/05 20:25:32;;;;;;;13.50;4.43;;;14.40;79.20;;;;;;4953616;29;20270;-96
2022/04/05 20:28:21;;;;;;;14.23;4.73;;;14.30;79.40;;;;;;4954295;29;20206;-96
2022/04/05 20:30:56;;;;;;;15.20;4.37;;;14.30;79.60;;;;;;4953185;29;20214;-96
2022/04/05 20:34:03;;;;;;;23.83;6.07;;;14.30;79.80;;;;;;4953161;29;20247;-96
2022/04/05 20:36:48;;;;;;;12.80;4.30;;;14.30;80.10;;;;;;4932019;29;20257;-96
2022/04/05 20:39:18;;;;;;;15.07;4.50;;;14.30;80.30;;;;;;4932658;29;20209;-96
2022/04/05 20:45:10;;;;;;;36.17;11.43;;;14.20;80.40;;;;;;5256584;23;20233;-96
2022/04/05 20:47:41;;;;;;;15.17;4.93;;;14.20;80.50;;;;;;5038777;28;20200;-95
2022/04/05 20:50:11;;;;;;;14.43;4.93;;;14.20;80.60;;;;;;5038763;28;20209;-96
2022/04/05 20:52:40;;;;;;;16.23;5.57;;;14.20;80.80;;;;;;5039563;28;20204;-96
2022/04/05 20:55:22;;;;;;;18.53;4.73;;;14.20;80.70;;;;;;5045798;28;20231;-96
2022/04/05 20:57:51;;;;;;;17.00;3.83;;;14.20;80.90;;;;;;5043042;28;20217;-96
2022/04/05 21:00:25;;;;;;;14.80;4.13;;;14.20;80.90;;;;;;5035069;28;20208;-96
2022/04/05 21:03:01;;;;;;;17.33;5.40;;;14.20;80.80;;;;;;5042604;28;20201;-95
2022/04/05 21:05:32;;;;;;;12.73;4.27;;;14.20;80.80;;;;;;5044708;28;20204;-96
2022/04/05 21:08:13;;;;;;;11.60;4.60;;;14.20;80.80;;;;;;5043986;28;20205;-96
2022/04/05 21:11:38;;;;;;;19.53;6.03;;;14.20;80.90;;;;;;5033498;28;20215;-96
2022/04/05 21:14:13;;;;;;;11.57;4.37;;;14.20;81.00;;;;;;5017145;28;20205;-96
2022/04/05 21:16:42;;;;;;;16.10;4.57;;;14.10;80.80;;;;;;5018710;28;20235;-96
2022/04/05 21:19:18;;;;;;;16.53;4.80;;;14.20;80.90;;;;;;5017989;28;20280;-96
2022/04/05 21:21:52;;;;;;;15.43;4.97;;;14.20;81.10;;;;;;5034104;28;20208;-95
2022/04/05 21:24:34;;;;;;;14.37;4.40;;;14.10;81.20;;;;;;5038634;28;20229;-95
2022/04/05 21:27:02;;;;;;;15.17;4.87;;;14.10;81.10;;;;;;5037485;28;20699;-95
2022/04/05 21:29:43;;;;;;;18.73;4.37;;;14.10;81.00;;;;;;5036985;28;20196;-95
2022/04/05 21:32:17;;;;;;;12.93;4.53;;;14.10;81.00;;;;;;5039877;28;20234;-96
2022/04/05 21:34:55;;;;;;;20.37;5.07;;;14.10;81.30;;;;;;5038287;28;20211;-96
2022/04/05 21:37:40;;;;;;;17.40;5.03;;;14.10;80.90;;;;;;5039363;28;20649;-96
2022/04/05 21:40:15;;;;;;;19.23;4.43;;;14.10;80.90;;;;;;5035618;28;20246;-94
2022/04/05 21:43:09;;;;;;;14.00;4.37;;;14.10;81.70;;;;;;5035732;28;20230;-95
2022/04/05 21:48:44;;;;;;;13.70;4.33;;;14.10;81.00;;;;;;5014889;28;20205;-96
2022/04/05 21:51:17;;;;;;;17.87;5.17;;;14.00;80.90;;;;;;5033365;28;20214;-94
2022/04/05 21:53:45;;;;;;;12.10;4.30;;;14.00;80.90;;;;;;5036896;28;20204;-95
2022/04/05 21:56:24;;;;;;;15.67;4.97;;;14.00;80.90;;;;;;5035445;28;20261;-95